createdAt,value
2019-05-22T02:03:13.550Z,94.60
2019-05-22T02:06:23.338Z,87.03
2019-05-22T02:09:20.847Z,88.73
2019-05-22T02:11:58.556Z,80.93
2019-05-22T02:14:36.133Z,86.77
2019-05-22T02:17:12.716Z,79.63
2019-05-22T02:19:48.478Z,68.97
2019-05-22T02:22:45.875Z,43.97
2019-05-22T02:25:18.422Z,44.13
2019-05-22T02:27:52.724Z,49.07
2019-05-22T02:30:28.862Z,43.63
2019-05-22T02:33:06.713Z,43.20
2019-05-22T02:35:47.007Z,41.50
2019-05-22T02:38:32.797Z,43.40
2019-05-22T02:41:15.430Z,40.90
2019-05-22T02:47:16.586Z,38.90
2019-05-22T02:52:58.898Z,34.83
2019-05-22T02:56:17.230Z,32.13
2019-05-22T02:59:33.223Z,28.43
2019-05-22T03:02:47.992Z,26.63
2019-05-22T03:17:20.917Z,20.03
2019-05-22T03:31:54.562Z,21.83
2019-05-22T03:49:30.103Z,26.80
2019-05-22T03:52:36.819Z,22.83
2019-05-22T03:58:21.686Z,19.33
2019-05-22T04:01:33.252Z,17.30
2019-05-22T04:32:17.986Z,21.53
2019-05-22T04:46:43.942Z,27.07
2019-05-22T04:49:27.991Z,25.20
2019-05-22T05:42:46.604Z,26.77
2019-05-22T05:45:58.224Z,25.70
2019-05-22T05:49:07.830Z,24.73
2019-05-22T05:52:36.650Z,23.83
2019-05-22T05:55:15.780Z,25.83
2019-05-22T06:02:20.607Z,26.60
2019-05-22T06:04:53.054Z,25.60
2019-05-22T06:08:00.098Z,26.37
2019-05-22T06:35:32.705Z,26.60
2019-05-22T06:38:33.852Z,27.23
2019-05-22T06:41:16.969Z,24.07
2019-05-22T06:44:33.849Z,25.87
2019-05-22T06:47:21.884Z,30.17
2019-05-22T06:50:07.469Z,26.07
2019-05-22T06:52:43.717Z,25.87
2019-05-22T06:55:16.883Z,26.93
2019-05-22T06:57:48.565Z,23.40
2019-05-22T07:00:26.252Z,29.03
2019-05-22T07:03:02.016Z,23.63
2019-05-22T07:05:37.530Z,24.87
2019-05-22T07:08:14.808Z,24.57
2019-05-22T07:10:48.533Z,23.97
2019-05-22T07:13:23.924Z,25.93
2019-05-22T07:16:00.506Z,23.80
2019-05-22T07:18:42.533Z,20.53
2019-05-22T07:21:18.389Z,18.87
2019-05-22T07:23:50.251Z,18.63
2019-05-22T07:26:22.870Z,21.77
2019-05-22T07:29:00.789Z,19.73
2019-05-22T07:31:36.503Z,19.00
2019-05-22T07:34:08.951Z,18.27
2019-05-22T07:36:41.498Z,18.63
2019-05-22T07:39:14.801Z,16.83
2019-05-22T07:41:47.380Z,17.10
2019-05-22T07:44:19.145Z,16.03
2019-05-22T07:46:52.919Z,14.30
2019-05-22T07:49:25.618Z,14.70
2019-05-22T07:52:01.728Z,14.10
2019-05-22T07:54:43.516Z,15.80
2019-05-22T07:57:21.376Z,13.13
2019-05-22T07:59:53.855Z,14.07
2019-05-22T08:02:29.290Z,13.73
2019-05-22T08:05:05.069Z,13.53
2019-05-22T08:07:45.571Z,12.43
2019-05-22T08:10:15.794Z,11.40
2019-05-22T08:12:49.070Z,13.23
2019-05-22T08:15:26.715Z,13.50
2019-05-22T08:17:59.601Z,12.47
2019-05-22T08:20:32.488Z,11.63
2019-05-22T08:23:04.748Z,12.43
2019-05-22T08:25:40.195Z,13.43
2019-05-22T08:28:13.775Z,11.90
2019-05-22T08:30:45.232Z,9.90
2019-05-22T08:33:20.898Z,11.53
2019-05-22T08:35:52.712Z,10.13
2019-05-22T08:38:31.199Z,9.67
2019-05-22T08:41:06.118Z,9.27
2019-05-22T08:44:11.528Z,8.73
2019-05-22T08:46:19.325Z,12.43
2019-05-22T08:48:53.798Z,14.23
2019-05-22T08:51:30.321Z,9.53
2019-05-22T08:54:05.362Z,10.27
2019-05-22T08:56:41.698Z,10.30
2019-05-22T08:59:19.480Z,11.10
2019-05-22T09:01:51.998Z,10.17
2019-05-22T09:04:27.206Z,10.17
2019-05-22T09:07:00.747Z,14.40
2019-05-22T09:09:33.532Z,7.77
2019-05-22T09:12:09.255Z,8.73
2019-05-22T09:14:45.065Z,13.20
2019-05-22T09:17:16.005Z,13.83
2019-05-22T09:19:47.569Z,12.30
2019-05-22T09:22:19.298Z,12.80
2019-05-22T09:24:50.665Z,11.30
2019-05-22T09:27:21.826Z,15.77
2019-05-22T09:29:53.491Z,12.50
2019-05-22T09:32:24.339Z,12.77
2019-05-22T09:34:55.620Z,11.23
2019-05-22T09:37:26.364Z,13.23
2019-05-22T10:24:18.414Z,13.67
2019-05-22T10:26:49.535Z,13.13
2019-05-22T10:29:21.804Z,12.53
2019-05-22T10:31:54.653Z,10.13
2019-05-22T10:34:25.678Z,10.83
2019-05-22T10:36:56.584Z,9.10
2019-05-22T10:39:28.055Z,8.50
2019-05-22T10:42:00.249Z,8.60
2019-05-22T10:44:31.372Z,9.73
2019-05-22T10:47:02.252Z,9.27
2019-05-22T10:49:32.960Z,8.90
2019-05-22T10:52:04.871Z,8.23
2019-05-22T10:54:35.643Z,9.53
2019-05-22T10:57:07.967Z,15.00
2019-05-22T10:59:38.743Z,9.50
2019-05-22T11:02:10.950Z,8.23
2019-05-22T11:04:42.121Z,8.80
2019-05-22T11:07:18.088Z,10.55
2019-05-22T11:09:52.190Z,8.70
2019-05-22T11:12:24.614Z,10.08
2019-05-22T11:14:55.547Z,9.58
2019-05-22T11:17:26.294Z,9.63
2019-05-22T11:19:56.996Z,8.88
2019-05-22T11:22:28.473Z,11.28
2019-05-22T11:25:02.290Z,9.63
2019-05-22T11:27:33.115Z,10.05
2019-05-22T11:30:05.740Z,12.30
2019-05-22T11:32:36.926Z,11.33
2019-05-22T11:35:12.504Z,10.65
2019-05-22T11:37:43.483Z,10.20
2019-05-22T11:40:14.883Z,11.33
2019-05-22T11:42:46.518Z,10.23
2019-05-22T11:45:18.298Z,10.80
2019-05-22T11:47:49.292Z,11.73
2019-05-22T11:50:22.072Z,12.03
2019-05-22T11:52:53.843Z,11.50
2019-05-22T11:55:43.851Z,12.47
2019-05-22T11:58:01.198Z,11.80
2019-05-22T12:00:34.187Z,12.55
2019-05-22T12:03:05.096Z,11.10
2019-05-22T12:05:38.012Z,11.28
2019-05-22T12:08:09.499Z,13.35
2019-05-22T12:10:41.470Z,15.40
2019-05-22T12:13:13.584Z,13.95
2019-05-22T12:15:44.538Z,12.80
2019-05-22T12:18:15.773Z,12.75
2019-05-22T12:20:48.212Z,13.78
2019-05-22T12:23:19.129Z,11.80
2019-05-22T12:25:51.284Z,14.20
2019-05-22T12:28:22.446Z,12.13
2019-05-22T12:30:53.295Z,11.68
2019-05-22T12:33:24.526Z,12.37
2019-05-22T12:35:56.377Z,11.48
2019-05-22T12:38:27.640Z,10.55
2019-05-22T12:40:59.159Z,11.93
2019-05-22T12:43:31.337Z,10.65
2019-05-22T12:46:03.427Z,12.18
2019-05-22T12:48:35.171Z,14.93
2019-05-22T12:51:06.528Z,12.93
2019-05-22T12:53:37.684Z,12.68
2019-05-22T12:56:09.069Z,10.00
2019-05-22T12:58:40.228Z,9.88
2019-05-22T13:01:12.465Z,9.20
2019-05-22T13:03:44.386Z,9.90
2019-05-22T13:06:15.766Z,10.30
2019-05-22T13:08:47.278Z,10.08
2019-05-22T13:11:18.094Z,9.95
2019-05-22T13:13:50.805Z,8.78
2019-05-22T13:16:22.106Z,8.55
2019-05-22T13:18:54.941Z,9.48
2019-05-22T13:21:32.673Z,9.05
2019-05-22T13:24:16.327Z,9.68
2019-05-22T13:26:51.065Z,10.50
2019-05-22T13:29:24.399Z,9.58
2019-05-22T13:31:57.312Z,10.53
2019-05-22T13:34:29.178Z,11.25
2019-05-22T13:37:00.008Z,8.58
2019-05-22T13:39:31.062Z,10.25
2019-05-22T13:42:01.971Z,9.33
2019-05-22T13:44:35.032Z,11.12
2019-05-22T13:47:06.509Z,11.83
2019-05-22T13:49:40.936Z,8.95
2019-05-22T13:52:12.817Z,9.28
2019-05-22T13:54:45.466Z,10.85
2019-05-22T13:57:23.719Z,9.78
2019-05-22T14:00:16.015Z,8.80
2019-05-22T14:02:54.439Z,8.70
2019-05-22T14:05:27.175Z,8.53
2019-05-22T14:08:06.560Z,8.05
2019-05-22T14:10:41.561Z,9.35
2019-05-22T14:13:23.275Z,8.90
2019-05-22T14:15:56.364Z,8.95
2019-05-22T14:18:32.378Z,11.10
2019-05-22T14:21:04.298Z,8.93
2019-05-22T14:23:37.456Z,11.12
2019-05-22T14:26:08.271Z,11.53
2019-05-22T14:28:41.670Z,8.48
2019-05-22T14:31:12.554Z,8.78
2019-05-22T14:33:43.841Z,8.48
2019-05-22T14:36:25.652Z,8.90
2019-05-22T16:01:59.644Z,10.90
2019-05-22T16:04:32.612Z,13.95
2019-05-22T16:07:09.823Z,13.67
2019-05-22T16:09:42.058Z,13.23
2019-05-22T16:12:14.204Z,10.67
2019-05-22T16:14:47.811Z,14.00
2019-05-22T16:17:19.165Z,13.55
2019-05-22T16:19:50.913Z,11.73
2019-05-22T16:22:22.201Z,10.68
2019-05-22T16:24:53.523Z,12.45
2019-05-22T16:27:25.862Z,13.08
2019-05-22T16:29:57.590Z,10.88
2019-05-22T16:32:34.492Z,10.88
2019-05-22T16:35:03.934Z,10.60
2019-05-22T16:37:35.718Z,15.37
2019-05-22T17:22:53.182Z,13.63
2019-05-22T17:25:31.207Z,10.20
2019-05-22T18:11:09.647Z,11.87
2019-05-22T18:14:03.071Z,11.20
2019-05-22T18:16:37.141Z,11.63
2019-05-22T18:19:08.773Z,11.30
2019-05-22T18:21:40.181Z,10.50
2019-05-22T18:24:14.239Z,13.77
2019-05-22T18:26:45.322Z,9.40
2019-05-22T18:29:19.372Z,13.17
2019-05-22T18:31:48.880Z,9.70
2019-05-22T18:34:19.902Z,12.93
2019-05-22T18:36:50.720Z,11.43
2019-05-22T18:39:22.735Z,12.27
2019-05-22T18:41:53.808Z,10.47
2019-05-22T18:44:24.879Z,12.40
2019-05-22T18:46:59.872Z,8.47
2019-05-22T18:49:31.346Z,11.10
2019-05-22T18:52:03.213Z,9.23
2019-05-22T18:55:28.339Z,19.93
2019-05-22T18:57:37.434Z,10.47
2019-05-22T19:00:38.129Z,11.57
2019-05-22T19:03:10.028Z,12.23
2019-05-22T19:05:45.120Z,8.87
2019-05-22T19:08:16.960Z,15.27
2019-05-22T19:36:32.150Z,11.97
2019-05-22T19:39:03.852Z,9.80
2019-05-22T19:41:35.012Z,10.23
2019-05-22T19:44:09.457Z,10.63
2019-05-22T19:46:40.360Z,9.00
2019-05-22T19:49:13.892Z,10.53
2019-05-22T19:51:45.531Z,9.83
2019-05-22T19:54:17.480Z,8.40
2019-05-22T19:56:49.235Z,11.10
2019-05-22T19:59:21.791Z,11.33
2019-05-22T20:01:56.251Z,9.57
2019-05-22T20:04:33.209Z,9.30
2019-05-22T20:10:38.847Z,8.57
2019-05-22T20:13:18.197Z,13.13
2019-05-22T20:15:53.223Z,8.43
2019-05-22T20:18:32.089Z,9.17
2019-05-22T20:21:14.351Z,10.10
2019-05-22T20:23:47.925Z,8.97
2019-05-22T20:26:25.098Z,9.60
2019-05-22T20:29:08.875Z,9.63
2019-05-22T20:31:47.192Z,11.93
2019-05-22T20:34:28.990Z,8.70
2019-05-22T20:37:28.567Z,11.63
2019-05-22T20:40:08.010Z,11.93
2019-05-22T20:42:54.225Z,10.03
2019-05-22T20:45:40.298Z,10.27
2019-05-22T21:38:48.333Z,20.87
2019-05-22T21:41:22.612Z,24.20
2019-05-22T21:43:57.801Z,28.20
2019-05-22T21:46:31.133Z,29.40
2019-05-22T21:49:10.180Z,33.23
2019-05-22T21:51:43.159Z,29.40
2019-05-22T21:54:16.445Z,29.53
2019-05-22T21:56:50.089Z,30.57
2019-05-22T21:59:23.805Z,25.67
2019-05-22T22:23:40.110Z,31.80
2019-05-22T22:26:25.591Z,33.03
2019-05-22T22:28:51.995Z,32.53
2019-05-22T22:31:25.568Z,36.27
2019-05-22T22:34:06.265Z,31.87
2019-05-22T22:36:40.422Z,37.90
2019-05-22T22:39:16.531Z,32.17
2019-05-22T22:41:50.713Z,31.10
2019-05-22T22:44:23.380Z,33.03
2019-05-22T22:46:58.820Z,31.67
2019-05-22T22:49:31.451Z,33.33
2019-05-22T22:52:04.054Z,32.23
2019-05-22T22:54:40.697Z,33.43
2019-05-22T22:57:12.834Z,28.27
2019-05-22T22:59:47.400Z,28.63
2019-05-22T23:02:25.078Z,27.83
2019-05-22T23:05:01.734Z,30.70
2019-05-22T23:07:35.492Z,28.93
2019-05-22T23:10:10.040Z,29.00
2019-05-22T23:12:43.071Z,35.23
2019-05-22T23:15:18.199Z,34.00
2019-05-22T23:17:52.067Z,31.33
2019-05-22T23:20:22.577Z,33.93
2019-05-22T23:22:51.813Z,32.13
2019-05-22T23:25:26.226Z,31.43
2019-05-22T23:27:57.287Z,32.97
2019-05-22T23:30:30.176Z,33.27
2019-05-22T23:33:03.242Z,33.97
2019-05-22T23:35:36.837Z,30.03
2019-05-22T23:38:09.699Z,30.53
2019-05-22T23:40:42.155Z,31.07
2019-05-22T23:43:14.463Z,35.00
